sensor_id;sensor_type;location;lat;lon;timestamp;P1;durP1;ratioP1;P2;durP2;ratioP2
24159;SDS011;62385;41.594;23.808;2023-08-12T00:00:20;1.45;;;0.98;;
24159;SDS011;62385;41.594;23.808;2023-08-12T00:02:46;3.03;;;1.08;;
24159;SDS011;62385;41.594;23.808;2023-08-12T00:05:12;1.67;;;1.50;;
24159;SDS011;62385;41.594;23.808;2023-08-12T00:07:39;1.38;;;1.17;;
24159;SDS011;62385;41.594;23.808;2023-08-12T00:10:09;1.77;;;1.35;;
24159;SDS011;62385;41.594;23.808;2023-08-12T00:12:36;2.10;;;1.58;;
24159;SDS011;62385;41.594;23.808;2023-08-12T00:15:02;2.33;;;1.40;;
24159;SDS011;62385;41.594;23.808;2023-08-12T00:17:29;2.75;;;1.33;;
24159;SDS011;62385;41.594;23.808;2023-08-12T00:19:55;1.88;;;1.25;;
24159;SDS011;62385;41.594;23.808;2023-08-12T00:22:22;2.22;;;1.70;;
24159;SDS011;62385;41.594;23.808;2023-08-12T00:24:48;2.15;;;1.38;;
24159;SDS011;62385;41.594;23.808;2023-08-12T00:27:14;2.03;;;1.77;;
24159;SDS011;62385;41.594;23.808;2023-08-12T00:29:39;1.20;;;0.98;;
24159;SDS011;62385;41.594;23.808;2023-08-12T00:32:05;2.72;;;1.20;;
24159;SDS011;62385;41.594;23.808;2023-08-12T00:34:31;1.90;;;1.33;;
24159;SDS011;62385;41.594;23.808;2023-08-12T00:36:57;2.95;;;1.77;;
24159;SDS011;62385;41.594;23.808;2023-08-12T00:39:23;2.65;;;1.42;;
24159;SDS011;62385;41.594;23.808;2023-08-12T00:41:49;1.80;;;1.70;;
24159;SDS011;62385;41.594;23.808;2023-08-12T00:44:15;3.67;;;1.48;;
24159;SDS011;62385;41.594;23.808;2023-08-12T00:46:41;2.67;;;2.03;;
24159;SDS011;62385;41.594;23.808;2023-08-12T00:49:08;3.53;;;1.70;;
24159;SDS011;62385;41.594;23.808;2023-08-12T00:51:34;2.83;;;1.50;;
24159;SDS011;62385;41.594;23.808;2023-08-12T00:54:04;1.60;;;1.27;;
24159;SDS011;62385;41.594;23.808;2023-08-12T00:56:35;1.92;;;1.45;;
24159;SDS011;62385;41.594;23.808;2023-08-12T00:59:00;1.90;;;1.40;;
24159;SDS011;62385;41.594;23.808;2023-08-12T01:01:28;4.40;;;1.95;;
24159;SDS011;62385;41.594;23.808;2023-08-12T01:03:56;1.92;;;1.60;;
24159;SDS011;62385;41.594;23.808;2023-08-12T01:06:22;1.70;;;1.60;;
24159;SDS011;62385;41.594;23.808;2023-08-12T01:08:49;2.80;;;2.05;;
24159;SDS011;62385;41.594;23.808;2023-08-12T01:14:06;4.30;;;1.90;;
24159;SDS011;62385;41.594;23.808;2023-08-12T01:16:42;4.43;;;2.08;;
24159;SDS011;62385;41.594;23.808;2023-08-12T01:19:11;3.35;;;1.27;;
24159;SDS011;62385;41.594;23.808;2023-08-12T01:21:59;2.00;;;1.23;;
24159;SDS011;62385;41.594;23.808;2023-08-12T01:24:26;1.77;;;1.67;;
24159;SDS011;62385;41.594;23.808;2023-08-12T01:26:53;2.90;;;1.48;;
24159;SDS011;62385;41.594;23.808;2023-08-12T01:29:20;1.65;;;1.40;;
24159;SDS011;62385;41.594;23.808;2023-08-12T01:31:48;2.88;;;1.50;;
24159;SDS011;62385;41.594;23.808;2023-08-12T01:34:20;2.00;;;1.50;;
24159;SDS011;62385;41.594;23.808;2023-08-12T01:36:56;2.97;;;1.13;;
24159;SDS011;62385;41.594;23.808;2023-08-12T01:39:23;1.23;;;0.90;;
24159;SDS011;62385;41.594;23.808;2023-08-12T01:41:51;1.40;;;1.10;;
24159;SDS011;62385;41.594;23.808;2023-08-12T01:44:18;3.50;;;1.10;;
24159;SDS011;62385;41.594;23.808;2023-08-12T01:46:44;2.58;;;1.30;;
24159;SDS011;62385;41.594;23.808;2023-08-12T01:49:10;2.13;;;1.80;;
24159;SDS011;62385;41.594;23.808;2023-08-12T01:51:35;1.52;;;1.40;;
24159;SDS011;62385;41.594;23.808;2023-08-12T01:54:01;3.45;;;1.38;;
24159;SDS011;62385;41.594;23.808;2023-08-12T01:56:27;1.20;;;1.10;;
24159;SDS011;62385;41.594;23.808;2023-08-12T01:58:53;2.25;;;1.52;;
24159;SDS011;62385;41.594;23.808;2023-08-12T02:01:19;1.05;;;0.95;;
24159;SDS011;62385;41.594;23.808;2023-08-12T02:03:44;0.73;;;0.73;;
24159;SDS011;62385;41.594;23.808;2023-08-12T02:06:10;1.10;;;1.00;;
24159;SDS011;62385;41.594;23.808;2023-08-12T02:08:35;1.85;;;1.08;;
24159;SDS011;62385;41.594;23.808;2023-08-12T02:11:01;1.30;;;1.13;;
24159;SDS011;62385;41.594;23.808;2023-08-12T02:13:27;1.55;;;1.02;;
24159;SDS011;62385;41.594;23.808;2023-08-12T02:15:53;1.92;;;1.20;;
24159;SDS011;62385;41.594;23.808;2023-08-12T02:18:18;1.15;;;1.05;;
24159;SDS011;62385;41.594;23.808;2023-08-12T02:20:46;1.98;;;1.55;;
24159;SDS011;62385;41.594;23.808;2023-08-12T02:23:12;4.75;;;1.45;;
24159;SDS011;62385;41.594;23.808;2023-08-12T02:25:38;1.15;;;1.02;;
24159;SDS011;62385;41.594;23.808;2023-08-12T02:28:04;2.47;;;1.67;;
24159;SDS011;62385;41.594;23.808;2023-08-12T02:30:30;1.35;;;1.10;;
24159;SDS011;62385;41.594;23.808;2023-08-12T02:32:56;1.20;;;1.00;;
24159;SDS011;62385;41.594;23.808;2023-08-12T02:35:23;1.10;;;1.00;;
24159;SDS011;62385;41.594;23.808;2023-08-12T02:37:48;1.20;;;1.10;;
24159;SDS011;62385;41.594;23.808;2023-08-12T02:40:14;2.22;;;1.58;;
24159;SDS011;62385;41.594;23.808;2023-08-12T02:42:40;1.65;;;1.00;;
24159;SDS011;62385;41.594;23.808;2023-08-12T02:45:05;3.35;;;1.30;;
24159;SDS011;62385;41.594;23.808;2023-08-12T02:47:31;1.25;;;0.77;;
24159;SDS011;62385;41.594;23.808;2023-08-12T02:49:57;0.60;;;0.60;;
24159;SDS011;62385;41.594;23.808;2023-08-12T02:52:23;2.42;;;1.20;;
24159;SDS011;62385;41.594;23.808;2023-08-12T02:54:48;1.20;;;0.90;;
24159;SDS011;62385;41.594;23.808;2023-08-12T02:57:14;1.65;;;1.20;;
24159;SDS011;62385;41.594;23.808;2023-08-12T02:59:40;0.93;;;0.75;;
24159;SDS011;62385;41.594;23.808;2023-08-12T03:02:06;2.78;;;1.05;;
24159;SDS011;62385;41.594;23.808;2023-08-12T03:04:32;1.27;;;1.08;;
24159;SDS011;62385;41.594;23.808;2023-08-12T03:06:57;1.17;;;1.08;;
24159;SDS011;62385;41.594;23.808;2023-08-12T03:09:23;2.55;;;0.93;;
24159;SDS011;62385;41.594;23.808;2023-08-12T03:11:48;3.65;;;1.20;;
24159;SDS011;62385;41.594;23.808;2023-08-12T03:14:14;1.70;;;1.30;;
24159;SDS011;62385;41.594;23.808;2023-08-12T03:16:39;1.50;;;1.40;;
24159;SDS011;62385;41.594;23.808;2023-08-12T03:19:06;2.65;;;1.85;;
24159;SDS011;62385;41.594;23.808;2023-08-12T03:21:32;1.70;;;1.58;;
24159;SDS011;62385;41.594;23.808;2023-08-12T03:23:59;1.73;;;1.63;;
24159;SDS011;62385;41.594;23.808;2023-08-12T03:26:25;1.38;;;1.00;;
24159;SDS011;62385;41.594;23.808;2023-08-12T03:28:53;4.30;;;1.45;;
24159;SDS011;62385;41.594;23.808;2023-08-12T03:31:18;1.30;;;1.20;;
24159;SDS011;62385;41.594;23.808;2023-08-12T03:33:44;2.03;;;1.80;;
24159;SDS011;62385;41.594;23.808;2023-08-12T03:36:11;1.38;;;1.08;;
24159;SDS011;62385;41.594;23.808;2023-08-12T03:38:36;1.55;;;1.25;;
24159;SDS011;62385;41.594;23.808;2023-08-12T03:41:02;4.05;;;1.98;;
24159;SDS011;62385;41.594;23.808;2023-08-12T03:43:30;5.53;;;1.77;;
24159;SDS011;62385;41.594;23.808;2023-08-12T03:45:56;2.75;;;1.95;;
24159;SDS011;62385;41.594;23.808;2023-08-12T03:48:22;2.95;;;1.63;;
24159;SDS011;62385;41.594;23.808;2023-08-12T03:50:48;1.45;;;1.35;;
24159;SDS011;62385;41.594;23.808;2023-08-12T03:53:14;1.80;;;1.48;;
24159;SDS011;62385;41.594;23.808;2023-08-12T03:55:40;1.75;;;1.33;;
24159;SDS011;62385;41.594;23.808;2023-08-12T03:58:10;4.90;;;1.40;;
24159;SDS011;62385;41.594;23.808;2023-08-12T04:00:40;1.65;;;1.20;;
24159;SDS011;62385;41.594;23.808;2023-08-12T04:03:06;1.38;;;1.10;;
24159;SDS011;62385;41.594;23.808;2023-08-12T04:05:31;1.08;;;0.98;;
24159;SDS011;62385;41.594;23.808;2023-08-12T04:07:57;1.75;;;1.30;;
24159;SDS011;62385;41.594;23.808;2023-08-12T04:10:22;1.70;;;1.23;;
24159;SDS011;62385;41.594;23.808;2023-08-12T04:12:48;1.40;;;1.30;;
24159;SDS011;62385;41.594;23.808;2023-08-12T04:15:14;3.30;;;1.48;;
24159;SDS011;62385;41.594;23.808;2023-08-12T04:17:58;1.75;;;1.35;;
24159;SDS011;62385;41.594;23.808;2023-08-12T04:20:24;2.83;;;1.27;;
24159;SDS011;62385;41.594;23.808;2023-08-12T04:22:49;1.27;;;1.17;;
24159;SDS011;62385;41.594;23.808;2023-08-12T04:25:15;1.55;;;1.40;;
24159;SDS011;62385;41.594;23.808;2023-08-12T04:27:40;0.98;;;0.90;;
24159;SDS011;62385;41.594;23.808;2023-08-12T04:30:06;1.67;;;1.10;;
24159;SDS011;62385;41.594;23.808;2023-08-12T04:32:32;2.25;;;1.33;;
24159;SDS011;62385;41.594;23.808;2023-08-12T04:34:58;1.33;;;1.00;;
24159;SDS011;62385;41.594;23.808;2023-08-12T04:37:24;3.08;;;1.20;;
24159;SDS011;62385;41.594;23.808;2023-08-12T04:39:51;2.70;;;1.75;;
24159;SDS011;62385;41.594;23.808;2023-08-12T04:42:18;1.13;;;1.02;;
24159;SDS011;62385;41.594;23.808;2023-08-12T04:44:45;4.38;;;1.77;;
24159;SDS011;62385;41.594;23.808;2023-08-12T04:47:10;1.55;;;1.45;;
24159;SDS011;62385;41.594;23.808;2023-08-12T04:49:36;2.35;;;1.23;;
24159;SDS011;62385;41.594;23.808;2023-08-12T04:52:02;1.15;;;1.00;;
24159;SDS011;62385;41.594;23.808;2023-08-12T04:54:28;1.67;;;1.45;;
24159;SDS011;62385;41.594;23.808;2023-08-12T04:56:55;1.52;;;1.42;;
24159;SDS011;62385;41.594;23.808;2023-08-12T04:59:21;3.40;;;1.92;;
24159;SDS011;62385;41.594;23.808;2023-08-12T05:01:47;1.50;;;1.17;;
24159;SDS011;62385;41.594;23.808;2023-08-12T05:04:13;4.25;;;1.95;;
24159;SDS011;62385;41.594;23.808;2023-08-12T05:06:39;2.85;;;1.75;;
24159;SDS011;62385;41.594;23.808;2023-08-12T05:09:05;3.55;;;1.70;;
24159;SDS011;62385;41.594;23.808;2023-08-12T05:11:31;2.15;;;1.77;;
24159;SDS011;62385;41.594;23.808;2023-08-12T05:13:57;2.47;;;1.67;;
24159;SDS011;62385;41.594;23.808;2023-08-12T05:16:23;3.63;;;1.77;;
24159;SDS011;62385;41.594;23.808;2023-08-12T05:18:49;2.25;;;1.50;;
24159;SDS011;62385;41.594;23.808;2023-08-12T05:21:15;2.08;;;1.38;;
24159;SDS011;62385;41.594;23.808;2023-08-12T05:23:41;2.13;;;1.80;;
24159;SDS011;62385;41.594;23.808;2023-08-12T05:26:06;2.60;;;1.95;;
24159;SDS011;62385;41.594;23.808;2023-08-12T05:28:32;1.40;;;1.27;;
24159;SDS011;62385;41.594;23.808;2023-08-12T05:30:57;5.68;;;2.28;;
24159;SDS011;62385;41.594;23.808;2023-08-12T05:33:23;2.70;;;1.73;;
24159;SDS011;62385;41.594;23.808;2023-08-12T05:35:49;2.53;;;1.83;;
24159;SDS011;62385;41.594;23.808;2023-08-12T05:38:15;4.22;;;2.00;;
24159;SDS011;62385;41.594;23.808;2023-08-12T05:40:41;3.42;;;1.92;;
24159;SDS011;62385;41.594;23.808;2023-08-12T05:43:07;3.58;;;1.95;;
24159;SDS011;62385;41.594;23.808;2023-08-12T05:45:33;4.68;;;2.13;;
24159;SDS011;62385;41.594;23.808;2023-08-12T05:47:59;3.72;;;1.95;;
24159;SDS011;62385;41.594;23.808;2023-08-12T05:50:24;3.88;;;2.00;;
24159;SDS011;62385;41.594;23.808;2023-08-12T05:52:51;2.20;;;1.65;;
24159;SDS011;62385;41.594;23.808;2023-08-12T05:55:17;6.65;;;2.45;;
24159;SDS011;62385;41.594;23.808;2023-08-12T05:57:42;3.25;;;2.10;;
24159;SDS011;62385;41.594;23.808;2023-08-12T06:00:08;2.10;;;1.83;;
24159;SDS011;62385;41.594;23.808;2023-08-12T06:02:37;2.90;;;2.13;;
24159;SDS011;62385;41.594;23.808;2023-08-12T06:05:03;1.60;;;1.42;;
24159;SDS011;62385;41.594;23.808;2023-08-12T06:07:28;1.92;;;1.60;;
24159;SDS011;62385;41.594;23.808;2023-08-12T06:09:54;1.83;;;1.65;;
24159;SDS011;62385;41.594;23.808;2023-08-12T06:12:19;2.22;;;1.63;;
24159;SDS011;62385;41.594;23.808;2023-08-12T06:14:45;1.80;;;1.60;;
24159;SDS011;62385;41.594;23.808;2023-08-12T06:17:10;3.28;;;1.67;;
24159;SDS011;62385;41.594;23.808;2023-08-12T06:19:36;1.95;;;1.63;;
24159;SDS011;62385;41.594;23.808;2023-08-12T06:22:20;2.20;;;1.42;;
24159;SDS011;62385;41.594;23.808;2023-08-12T06:24:45;3.95;;;2.08;;
24159;SDS011;62385;41.594;23.808;2023-08-12T06:27:11;2.50;;;1.50;;
24159;SDS011;62385;41.594;23.808;2023-08-12T06:29:36;5.57;;;1.80;;
24159;SDS011;62385;41.594;23.808;2023-08-12T06:32:02;1.67;;;1.40;;
24159;SDS011;62385;41.594;23.808;2023-08-12T06:34:27;3.97;;;2.28;;
24159;SDS011;62385;41.594;23.808;2023-08-12T06:36:54;2.75;;;1.40;;
24159;SDS011;62385;41.594;23.808;2023-08-12T06:39:20;2.72;;;2.30;;
24159;SDS011;62385;41.594;23.808;2023-08-12T06:41:46;6.25;;;3.67;;
24159;SDS011;62385;41.594;23.808;2023-08-12T06:44:12;3.33;;;2.65;;
24159;SDS011;62385;41.594;23.808;2023-08-12T06:46:38;2.03;;;1.85;;
24159;SDS011;62385;41.594;23.808;2023-08-12T06:49:23;3.72;;;1.77;;
24159;SDS011;62385;41.594;23.808;2023-08-12T06:51:48;2.35;;;1.73;;
24159;SDS011;62385;41.594;23.808;2023-08-12T06:54:14;1.85;;;1.60;;
24159;SDS011;62385;41.594;23.808;2023-08-12T06:56:59;2.50;;;2.05;;
24159;SDS011;62385;41.594;23.808;2023-08-12T06:59:25;1.60;;;1.35;;
24159;SDS011;62385;41.594;23.808;2023-08-12T07:01:50;2.65;;;2.25;;
24159;SDS011;62385;41.594;23.808;2023-08-12T07:04:16;1.92;;;1.70;;
24159;SDS011;62385;41.594;23.808;2023-08-12T07:06:41;2.67;;;1.85;;
24159;SDS011;62385;41.594;23.808;2023-08-12T07:09:07;2.97;;;1.95;;
24159;SDS011;62385;41.594;23.808;2023-08-12T07:11:33;2.72;;;1.75;;
24159;SDS011;62385;41.594;23.808;2023-08-12T07:14:18;1.50;;;1.10;;
24159;SDS011;62385;41.594;23.808;2023-08-12T07:16:44;1.92;;;1.75;;
24159;SDS011;62385;41.594;23.808;2023-08-12T07:19:10;3.35;;;2.38;;
24159;SDS011;62385;41.594;23.808;2023-08-12T07:21:36;2.60;;;1.70;;
24159;SDS011;62385;41.594;23.808;2023-08-12T07:24:02;2.13;;;1.83;;
24159;SDS011;62385;41.594;23.808;2023-08-12T07:26:28;2.17;;;1.40;;
24159;SDS011;62385;41.594;23.808;2023-08-12T07:28:54;1.70;;;1.30;;
24159;SDS011;62385;41.594;23.808;2023-08-12T07:31:20;2.05;;;1.35;;
24159;SDS011;62385;41.594;23.808;2023-08-12T07:33:45;1.95;;;1.65;;
24159;SDS011;62385;41.594;23.808;2023-08-12T07:36:10;1.65;;;1.13;;
24159;SDS011;62385;41.594;23.808;2023-08-12T07:38:36;1.17;;;1.00;;
24159;SDS011;62385;41.594;23.808;2023-08-12T07:41:02;1.75;;;1.20;;
24159;SDS011;62385;41.594;23.808;2023-08-12T07:43:27;1.45;;;1.10;;
24159;SDS011;62385;41.594;23.808;2023-08-12T07:45:53;1.60;;;1.25;;
24159;SDS011;62385;41.594;23.808;2023-08-12T07:48:22;1.38;;;1.17;;
24159;SDS011;62385;41.594;23.808;2023-08-12T07:50:54;1.50;;;1.38;;
24159;SDS011;62385;41.594;23.808;2023-08-12T07:53:23;1.85;;;1.67;;
24159;SDS011;62385;41.594;23.808;2023-08-12T07:55:48;3.50;;;2.25;;
24159;SDS011;62385;41.594;23.808;2023-08-12T07:58:14;1.92;;;1.38;;
24159;SDS011;62385;41.594;23.808;2023-08-12T08:00:39;1.38;;;1.20;;
24159;SDS011;62385;41.594;23.808;2023-08-12T08:03:07;1.38;;;1.27;;
24159;SDS011;62385;41.594;23.808;2023-08-12T08:05:33;4.93;;;1.20;;
24159;SDS011;62385;41.594;23.808;2023-08-12T08:07:58;1.60;;;1.27;;
24159;SDS011;62385;41.594;23.808;2023-08-12T08:10:24;1.90;;;1.30;;
24159;SDS011;62385;41.594;23.808;2023-08-12T08:12:50;1.90;;;1.48;;
24159;SDS011;62385;41.594;23.808;2023-08-12T08:15:16;2.28;;;1.50;;
24159;SDS011;62385;41.594;23.808;2023-08-12T08:17:41;2.33;;;1.60;;
24159;SDS011;62385;41.594;23.808;2023-08-12T08:20:07;1.75;;;1.48;;
24159;SDS011;62385;41.594;23.808;2023-08-12T08:22:34;3.53;;;2.13;;
24159;SDS011;62385;41.594;23.808;2023-08-12T08:25:00;1.00;;;0.90;;
24159;SDS011;62385;41.594;23.808;2023-08-12T08:27:26;1.67;;;1.42;;
24159;SDS011;62385;41.594;23.808;2023-08-12T08:29:52;4.97;;;1.48;;
24159;SDS011;62385;41.594;23.808;2023-08-12T08:32:18;2.80;;;1.48;;
24159;SDS011;62385;41.594;23.808;2023-08-12T08:34:43;2.70;;;1.02;;
24159;SDS011;62385;41.594;23.808;2023-08-12T08:37:27;1.00;;;0.90;;
24159;SDS011;62385;41.594;23.808;2023-08-12T08:39:53;1.15;;;0.80;;
24159;SDS011;62385;41.594;23.808;2023-08-12T08:42:18;6.13;;;1.63;;
24159;SDS011;62385;41.594;23.808;2023-08-12T08:44:46;1.75;;;1.05;;
24159;SDS011;62385;41.594;23.808;2023-08-12T08:47:19;1.30;;;1.00;;
24159;SDS011;62385;41.594;23.808;2023-08-12T08:49:47;1.10;;;0.70;;
24159;SDS011;62385;41.594;23.808;2023-08-12T08:52:13;1.42;;;0.88;;
24159;SDS011;62385;41.594;23.808;2023-08-12T08:54:39;1.85;;;0.80;;
24159;SDS011;62385;41.594;23.808;2023-08-12T08:57:06;0.68;;;0.63;;
24159;SDS011;62385;41.594;23.808;2023-08-12T08:59:32;0.70;;;0.60;;
24159;SDS011;62385;41.594;23.808;2023-08-12T09:01:57;0.60;;;0.50;;
24159;SDS011;62385;41.594;23.808;2023-08-12T09:04:24;1.77;;;1.48;;
24159;SDS011;62385;41.594;23.808;2023-08-12T09:06:51;1.67;;;1.40;;
24159;SDS011;62385;41.594;23.808;2023-08-12T09:09:18;1.48;;;1.00;;
24159;SDS011;62385;41.594;23.808;2023-08-12T09:11:46;2.53;;;1.10;;
24159;SDS011;62385;41.594;23.808;2023-08-12T09:14:12;0.85;;;0.77;;
24159;SDS011;62385;41.594;23.808;2023-08-12T09:16:38;1.23;;;1.08;;
24159;SDS011;62385;41.594;23.808;2023-08-12T09:19:04;0.60;;;0.40;;
24159;SDS011;62385;41.594;23.808;2023-08-12T09:21:30;0.80;;;0.55;;
24159;SDS011;62385;41.594;23.808;2023-08-12T09:23:55;0.90;;;0.75;;
24159;SDS011;62385;41.594;23.808;2023-08-12T09:26:21;0.70;;;0.60;;
24159;SDS011;62385;41.594;23.808;2023-08-12T09:28:47;1.33;;;0.60;;
24159;SDS011;62385;41.594;23.808;2023-08-12T09:31:21;1.40;;;0.70;;
24159;SDS011;62385;41.594;23.808;2023-08-12T09:33:49;1.20;;;1.05;;
24159;SDS011;62385;41.594;23.808;2023-08-12T09:36:15;0.73;;;0.70;;
24159;SDS011;62385;41.594;23.808;2023-08-12T09:38:42;0.85;;;0.52;;
24159;SDS011;62385;41.594;23.808;2023-08-12T09:41:08;0.88;;;0.77;;
24159;SDS011;62385;41.594;23.808;2023-08-12T09:43:34;5.82;;;1.00;;
24159;SDS011;62385;41.594;23.808;2023-08-12T09:45:59;1.30;;;1.02;;
24159;SDS011;62385;41.594;23.808;2023-08-12T09:48:25;0.82;;;0.80;;
24159;SDS011;62385;41.594;23.808;2023-08-12T09:50:52;1.42;;;0.80;;
24159;SDS011;62385;41.594;23.808;2023-08-12T09:53:19;3.03;;;1.42;;
24159;SDS011;62385;41.594;23.808;2023-08-12T09:55:47;1.80;;;0.93;;
24159;SDS011;62385;41.594;23.808;2023-08-12T09:58:13;3.53;;;1.10;;
24159;SDS011;62385;41.594;23.808;2023-08-12T10:00:42;0.73;;;0.57;;
24159;SDS011;62385;41.594;23.808;2023-08-12T10:03:12;1.08;;;0.70;;
24159;SDS011;62385;41.594;23.808;2023-08-12T10:05:43;3.38;;;1.02;;
24159;SDS011;62385;41.594;23.808;2023-08-12T10:08:09;3.15;;;1.30;;
24159;SDS011;62385;41.594;23.808;2023-08-12T10:10:37;1.45;;;1.10;;
24159;SDS011;62385;41.594;23.808;2023-08-12T10:13:04;0.77;;;0.70;;
24159;SDS011;62385;41.594;23.808;2023-08-12T10:15:32;0.73;;;0.60;;
24159;SDS011;62385;41.594;23.808;2023-08-12T10:17:59;3.67;;;0.80;;
24159;SDS011;62385;41.594;23.808;2023-08-12T10:20:25;1.73;;;0.80;;
24159;SDS011;62385;41.594;23.808;2023-08-12T10:22:51;1.17;;;0.82;;
24159;SDS011;62385;41.594;23.808;2023-08-12T10:25:20;0.82;;;0.80;;
24159;SDS011;62385;41.594;23.808;2023-08-12T10:27:49;0.50;;;0.40;;
24159;SDS011;62385;41.594;23.808;2023-08-12T10:30:15;1.20;;;0.75;;
24159;SDS011;62385;41.594;23.808;2023-08-12T10:32:41;0.80;;;0.68;;
24159;SDS011;62385;41.594;23.808;2023-08-12T10:35:08;0.70;;;0.45;;
24159;SDS011;62385;41.594;23.808;2023-08-12T10:37:34;0.80;;;0.57;;
24159;SDS011;62385;41.594;23.808;2023-08-12T10:40:03;5.47;;;0.82;;
24159;SDS011;62385;41.594;23.808;2023-08-12T10:42:46;0.68;;;0.60;;
24159;SDS011;62385;41.594;23.808;2023-08-12T10:45:13;1.35;;;0.70;;
24159;SDS011;62385;41.594;23.808;2023-08-12T10:48:09;0.50;;;0.50;;
24159;SDS011;62385;41.594;23.808;2023-08-12T10:50:45;0.73;;;0.50;;
24159;SDS011;62385;41.594;23.808;2023-08-12T10:53:27;0.95;;;0.80;;
24159;SDS011;62385;41.594;23.808;2023-08-12T10:56:07;0.93;;;0.60;;
24159;SDS011;62385;41.594;23.808;2023-08-12T10:58:46;3.55;;;0.88;;
24159;SDS011;62385;41.594;23.808;2023-08-12T11:01:31;1.63;;;0.60;;
24159;SDS011;62385;41.594;23.808;2023-08-12T11:03:57;1.60;;;0.82;;
24159;SDS011;62385;41.594;23.808;2023-08-12T11:06:23;0.68;;;0.65;;
24159;SDS011;62385;41.594;23.808;2023-08-12T11:08:52;0.73;;;0.60;;
24159;SDS011;62385;41.594;23.808;2023-08-12T11:11:24;3.58;;;0.88;;
24159;SDS011;62385;41.594;23.808;2023-08-12T11:14:11;0.68;;;0.68;;
24159;SDS011;62385;41.594;23.808;2023-08-12T11:16:39;1.30;;;0.73;;
24159;SDS011;62385;41.594;23.808;2023-08-12T11:19:08;3.17;;;1.88;;
24159;SDS011;62385;41.594;23.808;2023-08-12T11:21:35;0.90;;;0.75;;
24159;SDS011;62385;41.594;23.808;2023-08-12T11:24:01;0.60;;;0.50;;
24159;SDS011;62385;41.594;23.808;2023-08-12T11:26:27;0.63;;;0.60;;
24159;SDS011;62385;41.594;23.808;2023-08-12T11:28:53;6.18;;;0.60;;
24159;SDS011;62385;41.594;23.808;2023-08-12T11:31:19;4.75;;;1.10;;
24159;SDS011;62385;41.594;23.808;2023-08-12T11:33:48;0.57;;;0.55;;
24159;SDS011;62385;41.594;23.808;2023-08-12T11:36:13;0.80;;;0.60;;
24159;SDS011;62385;41.594;23.808;2023-08-12T11:38:40;0.70;;;0.70;;
24159;SDS011;62385;41.594;23.808;2023-08-12T11:41:05;0.65;;;0.40;;
24159;SDS011;62385;41.594;23.808;2023-08-12T11:43:34;0.50;;;0.35;;
24159;SDS011;62385;41.594;23.808;2023-08-12T11:46:00;1.73;;;0.93;;
24159;SDS011;62385;41.594;23.808;2023-08-12T11:48:29;1.13;;;0.70;;
24159;SDS011;62385;41.594;23.808;2023-08-12T11:50:54;0.70;;;0.60;;
24159;SDS011;62385;41.594;23.808;2023-08-12T11:53:21;1.13;;;0.50;;
24159;SDS011;62385;41.594;23.808;2023-08-12T11:55:46;1.90;;;0.88;;
24159;SDS011;62385;41.594;23.808;2023-08-12T11:58:13;0.93;;;0.68;;
24159;SDS011;62385;41.594;23.808;2023-08-12T12:00:48;0.80;;;0.80;;
24159;SDS011;62385;41.594;23.808;2023-08-12T12:03:15;1.77;;;0.63;;
24159;SDS011;62385;41.594;23.808;2023-08-12T12:05:42;0.80;;;0.60;;
24159;SDS011;62385;41.594;23.808;2023-08-12T12:08:13;0.50;;;0.40;;
24159;SDS011;62385;41.594;23.808;2023-08-12T12:10:39;1.20;;;0.80;;
24159;SDS011;62385;41.594;23.808;2023-08-12T12:13:05;5.22;;;0.75;;
24159;SDS011;62385;41.594;23.808;2023-08-12T12:15:31;6.50;;;1.27;;
24159;SDS011;62385;41.594;23.808;2023-08-12T12:18:03;3.95;;;1.70;;
24159;SDS011;62385;41.594;23.808;2023-08-12T12:20:29;0.77;;;0.60;;
24159;SDS011;62385;41.594;23.808;2023-08-12T12:22:54;0.90;;;0.60;;
24159;SDS011;62385;41.594;23.808;2023-08-12T12:25:20;4.00;;;1.00;;
24159;SDS011;62385;41.594;23.808;2023-08-12T12:27:47;0.75;;;0.50;;
24159;SDS011;62385;41.594;23.808;2023-08-12T12:30:13;0.75;;;0.63;;
24159;SDS011;62385;41.594;23.808;2023-08-12T12:32:39;0.73;;;0.60;;
24159;SDS011;62385;41.594;23.808;2023-08-12T12:35:05;1.08;;;0.82;;
24159;SDS011;62385;41.594;23.808;2023-08-12T12:37:32;1.55;;;0.88;;
24159;SDS011;62385;41.594;23.808;2023-08-12T12:39:58;1.45;;;0.93;;
24159;SDS011;62385;41.594;23.808;2023-08-12T12:42:24;0.77;;;0.60;;
24159;SDS011;62385;41.594;23.808;2023-08-12T12:44:49;0.60;;;0.60;;
24159;SDS011;62385;41.594;23.808;2023-08-12T12:47:15;1.02;;;0.90;;
24159;SDS011;62385;41.594;23.808;2023-08-12T12:49:41;1.50;;;0.90;;
24159;SDS011;62385;41.594;23.808;2023-08-12T12:52:07;1.02;;;0.70;;
24159;SDS011;62385;41.594;23.808;2023-08-12T12:54:32;0.95;;;0.70;;
24159;SDS011;62385;41.594;23.808;2023-08-12T12:56:59;5.40;;;0.70;;
24159;SDS011;62385;41.594;23.808;2023-08-12T12:59:26;0.82;;;0.63;;
24159;SDS011;62385;41.594;23.808;2023-08-12T13:01:52;0.90;;;0.70;;
24159;SDS011;62385;41.594;23.808;2023-08-12T13:04:17;0.73;;;0.70;;
24159;SDS011;62385;41.594;23.808;2023-08-12T13:06:43;0.52;;;0.50;;
24159;SDS011;62385;41.594;23.808;2023-08-12T13:09:09;5.97;;;0.85;;
24159;SDS011;62385;41.594;23.808;2023-08-12T13:11:35;2.08;;;0.60;;
24159;SDS011;62385;41.594;23.808;2023-08-12T13:14:04;0.60;;;0.55;;
24159;SDS011;62385;41.594;23.808;2023-08-12T13:16:30;0.70;;;0.70;;
24159;SDS011;62385;41.594;23.808;2023-08-12T13:18:55;0.73;;;0.57;;
24159;SDS011;62385;41.594;23.808;2023-08-12T13:21:23;1.48;;;0.82;;
24159;SDS011;62385;41.594;23.808;2023-08-12T13:23:50;1.23;;;0.68;;
24159;SDS011;62385;41.594;23.808;2023-08-12T13:26:16;1.25;;;0.68;;
24159;SDS011;62385;41.594;23.808;2023-08-12T13:28:43;1.42;;;0.70;;
24159;SDS011;62385;41.594;23.808;2023-08-12T13:31:09;4.07;;;0.70;;
24159;SDS011;62385;41.594;23.808;2023-08-12T13:33:34;1.98;;;1.35;;
24159;SDS011;62385;41.594;23.808;2023-08-12T13:36:00;0.85;;;0.70;;
24159;SDS011;62385;41.594;23.808;2023-08-12T13:38:26;0.70;;;0.60;;
24159;SDS011;62385;41.594;23.808;2023-08-12T13:40:51;0.98;;;0.70;;
24159;SDS011;62385;41.594;23.808;2023-08-12T13:43:17;0.98;;;0.60;;
24159;SDS011;62385;41.594;23.808;2023-08-12T13:46:01;0.82;;;0.60;;
24159;SDS011;62385;41.594;23.808;2023-08-12T13:48:27;0.65;;;0.60;;
24159;SDS011;62385;41.594;23.808;2023-08-12T13:50:53;1.25;;;0.65;;
24159;SDS011;62385;41.594;23.808;2023-08-12T13:53:18;1.85;;;1.10;;
24159;SDS011;62385;41.594;23.808;2023-08-12T13:55:44;3.33;;;0.93;;
24159;SDS011;62385;41.594;23.808;2023-08-12T13:58:10;1.10;;;0.90;;
24159;SDS011;62385;41.594;23.808;2023-08-12T14:00:36;0.60;;;0.60;;
24159;SDS011;62385;41.594;23.808;2023-08-12T14:03:03;0.40;;;0.40;;
24159;SDS011;62385;41.594;23.808;2023-08-12T14:05:29;2.95;;;1.08;;
24159;SDS011;62385;41.594;23.808;2023-08-12T14:07:55;3.03;;;1.70;;
24159;SDS011;62385;41.594;23.808;2023-08-12T14:10:20;1.92;;;1.20;;
24159;SDS011;62385;41.594;23.808;2023-08-12T14:12:46;0.65;;;0.65;;
24159;SDS011;62385;41.594;23.808;2023-08-12T14:15:14;1.15;;;0.80;;
24159;SDS011;62385;41.594;23.808;2023-08-12T14:17:40;0.55;;;0.40;;
24159;SDS011;62385;41.594;23.808;2023-08-12T14:20:05;0.60;;;0.60;;
24159;SDS011;62385;41.594;23.808;2023-08-12T14:22:36;0.93;;;0.75;;
24159;SDS011;62385;41.594;23.808;2023-08-12T14:25:02;1.17;;;0.77;;
24159;SDS011;62385;41.594;23.808;2023-08-12T14:27:29;1.48;;;0.73;;
24159;SDS011;62385;41.594;23.808;2023-08-12T14:29:54;5.38;;;0.82;;
24159;SDS011;62385;41.594;23.808;2023-08-12T14:32:20;1.73;;;1.23;;
24159;SDS011;62385;41.594;23.808;2023-08-12T14:34:45;0.85;;;0.73;;